createdAt,value
2018-11-22T12:17:03.751Z,6.30
2018-11-22T12:21:12.009Z,6.30
2018-11-22T12:25:21.582Z,6.30
2018-11-22T12:29:29.991Z,6.30
2018-11-22T12:33:38.287Z,6.40
2018-11-22T12:37:51.846Z,6.40
2018-11-22T12:42:00.124Z,6.40
2018-11-22T12:46:08.401Z,6.50
2018-11-22T12:50:16.706Z,6.50
2018-11-22T12:54:24.992Z,6.50
2018-11-22T12:58:33.325Z,6.50
2018-11-22T13:02:42.457Z,6.50
2018-11-22T13:06:50.417Z,6.50
2018-11-22T13:10:58.706Z,6.50
2018-11-22T13:15:09.316Z,6.50
2018-11-22T13:19:17.917Z,6.40
2018-11-22T13:23:26.192Z,6.50
2018-11-22T13:27:34.470Z,6.50
2018-11-22T13:31:42.776Z,6.40
2018-11-22T13:35:51.005Z,6.40
2018-11-22T13:39:59.321Z,6.40
2018-11-22T13:44:07.784Z,6.50
2018-11-22T13:48:16.102Z,6.50
2018-11-22T13:52:24.397Z,6.50
2018-11-22T13:56:32.685Z,6.50
2018-11-22T14:00:40.969Z,6.50
2018-11-22T14:04:49.259Z,6.50
2018-11-22T14:08:57.524Z,6.50
2018-11-22T14:13:06.018Z,6.50
2018-11-22T14:17:14.320Z,6.50
2018-11-22T14:21:22.590Z,6.50
2018-11-22T14:25:31.036Z,6.50
2018-11-22T14:29:39.326Z,6.50
2018-11-22T14:33:47.614Z,6.50
2018-11-22T14:37:55.862Z,6.50
2018-11-22T14:42:04.165Z,6.50
2018-11-22T14:46:12.473Z,6.50
2018-11-22T14:50:31.679Z,6.50
2018-11-22T14:54:39.960Z,6.50
2018-11-22T14:58:48.295Z,6.50
2018-11-22T15:02:56.573Z,6.50
2018-11-22T15:07:04.925Z,6.50
2018-11-22T15:11:13.199Z,6.50
2018-11-22T15:15:23.012Z,6.50
2018-11-22T15:19:31.309Z,6.50
2018-11-22T15:23:39.591Z,6.50
2018-11-22T15:27:47.912Z,6.50
2018-11-22T15:31:56.244Z,6.40
2018-11-22T15:36:04.601Z,6.40
2018-11-22T15:40:14.565Z,6.30
2018-11-22T15:44:22.837Z,6.20
2018-11-22T15:48:31.171Z,6.20
2018-11-22T15:52:39.657Z,6.10
2018-11-22T15:56:47.975Z,6.10
2018-11-22T16:05:04.782Z,6.00
2018-11-22T16:09:13.083Z,6.00
2018-11-22T16:13:21.423Z,5.90
2018-11-22T16:17:29.786Z,5.90
2018-11-22T16:21:38.109Z,5.90
2018-11-22T16:25:46.458Z,5.90
2018-11-22T16:29:54.922Z,5.90
2018-11-22T16:34:03.450Z,5.80
2018-11-22T16:38:12.856Z,5.80
2018-11-22T16:42:21.331Z,5.70
2018-11-22T16:46:29.737Z,5.60
2018-11-22T16:50:39.064Z,5.60
2018-11-22T16:54:47.464Z,5.50
2018-11-22T16:58:55.768Z,5.50
2018-11-22T17:03:05.877Z,5.50
2018-11-22T17:07:14.126Z,5.40
2018-11-22T17:11:22.414Z,5.40
2018-11-22T17:15:32.360Z,5.30
2018-11-22T17:19:40.682Z,5.30
2018-11-22T17:23:48.994Z,5.20
2018-11-22T17:27:58.730Z,5.10
2018-11-22T17:32:07.041Z,5.00
2018-11-22T17:36:15.373Z,4.90
2018-11-22T17:40:39.787Z,4.80
2018-11-22T17:44:48.136Z,4.70
2018-11-22T17:48:56.444Z,4.60
2018-11-22T17:53:05.153Z,4.50
2018-11-22T17:57:13.503Z,4.40
2018-11-22T18:01:21.831Z,4.40
2018-11-22T18:05:30.086Z,4.30
2018-11-22T18:09:38.393Z,4.30
2018-11-22T18:13:46.692Z,4.20
2018-11-22T18:17:55.504Z,4.20
2018-11-22T18:26:11.822Z,4.00
2018-11-22T18:30:21.499Z,3.90
2018-11-22T18:34:29.805Z,3.90
2018-11-22T18:38:38.104Z,3.90
2018-11-22T18:42:47.206Z,3.90
2018-11-22T18:46:55.551Z,3.90
2018-11-22T18:51:03.991Z,3.90
2018-11-22T18:55:12.763Z,3.80
2018-11-22T18:59:21.081Z,3.90
2018-11-22T19:07:37.571Z,3.90
2018-11-22T19:11:45.999Z,3.90
2018-11-22T19:15:54.344Z,3.80
2018-11-22T19:28:38.558Z,3.60
2018-11-22T19:32:48.105Z,3.60
2018-11-22T19:41:04.503Z,3.70
2018-11-22T19:45:14.506Z,3.70
2018-11-22T19:49:22.826Z,3.70
2018-11-22T19:53:31.178Z,3.70
2018-11-22T19:57:39.486Z,3.70
2018-11-22T20:01:47.799Z,3.70
2018-11-22T20:05:56.103Z,3.60
2018-11-22T20:10:05.378Z,3.50
2018-11-22T20:14:13.677Z,3.40
2018-11-22T20:18:22.022Z,3.40
2018-11-22T20:22:30.329Z,3.30
2018-11-22T20:26:38.693Z,3.40
2018-11-22T20:30:47.028Z,3.40
2018-11-22T20:34:55.424Z,3.40
2018-11-22T20:39:04.195Z,3.40
2018-11-22T20:43:12.528Z,3.30
2018-11-22T20:47:20.801Z,3.30
2018-11-22T20:51:29.151Z,3.30
2018-11-22T20:55:38.710Z,3.30
2018-11-22T20:59:47.008Z,3.40
2018-11-22T21:03:55.317Z,3.30
2018-11-22T21:08:03.639Z,3.30
2018-11-22T21:12:12.015Z,3.30
2018-11-22T21:16:20.386Z,3.30
2018-11-22T21:20:31.257Z,3.30
2018-11-22T21:24:39.517Z,3.30
2018-11-22T21:28:47.854Z,3.30
2018-11-22T21:32:56.808Z,3.30
2018-11-22T21:37:05.227Z,3.20
2018-11-22T21:41:13.498Z,3.20
2018-11-22T21:45:23.043Z,3.20
2018-11-22T21:49:31.369Z,3.10
2018-11-22T21:53:39.601Z,3.00
2018-11-22T21:57:48.470Z,3.00
2018-11-22T22:01:56.781Z,3.10
2018-11-22T22:06:05.153Z,3.10
2018-11-22T22:10:13.471Z,3.00
2018-11-22T22:14:21.788Z,2.90
2018-11-22T22:22:38.232Z,2.90
2018-11-22T22:26:46.625Z,2.90
2018-11-22T22:30:54.937Z,2.80
2018-11-22T22:35:03.209Z,2.80
2018-11-22T22:39:12.422Z,2.80
2018-11-22T22:43:20.736Z,2.70
2018-11-22T22:47:28.999Z,2.70
2018-11-22T22:51:37.325Z,2.70
2018-11-22T22:55:45.645Z,2.60
2018-11-22T22:59:53.940Z,2.60
2018-11-22T23:04:02.232Z,2.70
2018-11-22T23:08:10.533Z,2.70
2018-11-22T23:12:18.829Z,2.80
2018-11-22T23:16:27.157Z,2.90
2018-11-22T23:24:44.809Z,2.90
2018-11-22T23:28:53.299Z,3.00
2018-11-22T23:33:02.864Z,3.00
2018-11-22T23:37:11.231Z,3.00
2018-11-22T23:41:19.513Z,3.00
2018-11-22T23:45:29.149Z,3.10
2018-11-22T23:49:37.541Z,3.10
2018-11-22T23:53:45.919Z,3.00
2018-11-22T23:57:54.191Z,3.00
